Time;durP1;ratioP1;P1;durP2;ratioP2;P2;SDS_P1;SDS_P2;PMS_P1;PMS_P2;Temp;Humidity;BMP_temperature;BMP_pressure;BME280_temperature;BME280_humidity;BME280_pressure;Samples;Min_cycle;Max_cycle;Signal;HPM_P1;HPM_P2
2023/06/02 00:00:42;;;;;;;3.53;2.30;;;17.10;82.40;;;;;;5018870;28;20026;-81
2023/06/02 00:03:53;;;;;;;3.38;2.33;;;17.00;82.50;;;;;;5019383;28;20033;-82
2023/06/02 00:06:33;;;;;;;7.60;2.42;;;17.10;83.20;;;;;;5015566;28;20105;-85
2023/06/02 00:09:00;;;;;;;4.30;2.38;;;;;;;;;;5012681;28;20035;-82
2023/06/02 00:12:11;;;;;;;4.40;2.35;;;17.00;81.00;;;;;;5016975;28;20050;-81
2023/06/02 00:15:04;;;;;;;6.13;2.13;;;16.90;83.10;;;;;;5018660;28;20082;-81
2023/06/02 00:17:52;;;;;;;4.47;2.97;;;16.80;82.90;;;;;;5013590;28;20042;-81
2023/06/02 00:20:20;;;;;;;6.13;2.53;;;16.80;82.80;;;;;;4991256;28;20022;-81
2023/06/02 00:23:08;;;;;;;4.63;2.50;;;16.80;82.90;;;;;;5017482;28;20061;-81
2023/06/02 00:25:57;;;;;;;2.30;1.95;;;16.80;82.90;;;;;;5002510;28;20030;-82
2023/06/02 00:28:23;;;;;;;7.35;3.30;;;;;;;;;;5001819;28;20022;-82
2023/06/02 00:31:07;;;;;;;6.25;2.80;;;16.80;84.00;;;;;;5018560;28;20011;-81
2023/06/02 00:33:54;;;;;;;6.97;3.10;;;16.80;84.40;;;;;;5017534;28;20007;-81
2023/06/02 00:36:23;;;;;;;4.15;2.55;;;;;;;;;;5017446;28;20040;-81
2023/06/02 00:38:49;;;;;;;7.85;2.90;;;;;;;;;;5017643;28;20082;-82
2023/06/02 00:41:18;;;;;;;6.50;3.25;;;16.70;85.30;;;;;;5018858;28;20010;-81
2023/06/02 00:43:52;;;;;;;;;;;16.60;85.20;;;;;;5018125;28;20038;-81
2023/06/02 00:46:24;;;;;;;9.90;3.75;;;;;;;;;;5018094;28;19906;-81
2023/06/02 00:48:53;;;;;;;6.65;3.85;;;;;;;;;;5017883;28;20026;-81
2023/06/02 00:51:23;;;;;;;9.30;3.58;;;16.60;86.50;;;;;;5017675;28;20053;-81
2023/06/02 00:53:52;;;;;;;10.35;4.18;;;;;;;;;;5018252;28;20030;-81
2023/06/02 00:56:23;;;;;;;5.85;3.72;;;;;;;;;;5017343;28;20050;-81
2023/06/02 00:59:10;;;;;;;7.07;3.63;;;16.40;87.60;;;;;;5016902;28;20037;-82
2023/06/02 01:02:02;;;;;;;12.55;4.75;;;16.40;87.00;;;;;;5000171;28;20026;-82
2023/06/02 01:04:30;;;;;;;8.00;3.63;;;;;;;;;;5016538;28;20042;-81
2023/06/02 01:07:44;;;;;;;12.30;4.63;;;16.40;87.30;;;;;;5015646;28;20006;-81
2023/06/02 01:10:23;;;;;;;9.43;4.57;;;16.30;86.60;;;;;;5017514;28;20031;-81
2023/06/02 01:12:49;;;;;;;7.53;4.20;;;;;;;;;;5016750;28;20069;-81
2023/06/02 01:15:40;;;;;;;11.75;4.50;;;16.30;88.40;;;;;;5017140;28;20015;-81
2023/06/02 01:18:12;;;;;;;5.57;3.47;;;16.20;87.50;;;;;;4999470;28;20017;-81
2023/06/02 01:21:21;;;;;;;7.18;4.45;;;16.20;88.50;;;;;;5016135;28;20084;-81
2023/06/02 01:23:57;;;;;;;8.20;4.57;;;;;;;;;;5015585;28;20098;-82
2023/06/02 01:26:43;;;;;;;9.48;4.53;;;16.10;87.80;;;;;;5016640;28;20056;-81
2023/06/02 01:29:13;;;;;;;9.65;5.13;;;;;;;;;;5016617;28;20022;-81
2023/06/02 01:32:07;;;;;;;7.88;4.38;;;16.10;87.10;;;;;;5016691;28;20018;-81
2023/06/02 01:34:42;;;;;;;9.55;4.68;;;16.10;87.40;;;;;;4998434;28;20497;-81
2023/06/02 01:37:11;;;;;;;16.95;4.82;;;;;;;;;;5008487;28;20027;-81
2023/06/02 01:39:39;;;;;;;10.48;4.40;;;16.10;87.20;;;;;;5005242;28;20086;-81
2023/06/02 01:42:21;;;;;;;9.73;4.10;;;16.00;87.90;;;;;;5015236;28;20094;-79
2023/06/02 01:45:15;;;;;;;9.05;4.43;;;16.10;88.50;;;;;;5016122;28;20030;-80
2023/06/02 01:47:42;;;;;;;10.57;5.00;;;16.00;88.70;;;;;;5016233;28;20030;-81
2023/06/02 01:50:12;;;;;;;8.13;4.20;;;;;;;;;;5015185;28;20030;-80
2023/06/02 01:52:44;;;;;;;12.85;5.07;;;;;;;;;;5015955;28;20011;-80
2023/06/02 01:55:12;;;;;;;12.60;4.53;;;;;;;;;;5014471;28;20034;-80
2023/06/02 01:57:38;;;;;;;8.25;3.97;;;;;;;;;;5016521;28;20070;-79
2023/06/02 02:00:28;;;;;;;7.45;4.63;;;;;;;;;;5016538;28;20006;-81
2023/06/02 02:03:24;;;;;;;9.40;4.45;;;15.90;90.30;;;;;;4996801;28;20043;-80
2023/06/02 02:05:52;;;;;;;10.38;4.85;;;;;;;;;;5014713;28;20026;-81
2023/06/02 02:08:23;;;;;;;9.98;3.92;;;15.70;90.50;;;;;;5013723;28;20027;-81
2023/06/02 02:11:06;;;;;;;6.78;4.55;;;15.70;90.50;;;;;;5013252;28;20022;-80
2023/06/02 02:13:52;;;;;;;8.27;4.30;;;15.60;90.80;;;;;;5014877;28;20027;-81
2023/06/02 02:16:20;;;;;;;9.10;4.28;;;;;;;;;;5015246;28;20066;-80
2023/06/02 02:18:46;;;;;;;9.38;4.28;;;;;;;;;;5015098;28;20041;-81
2023/06/02 02:21:12;;;;;;;6.55;3.78;;;;;;;;;;5014587;28;20019;-81
2023/06/02 02:23:39;;;;;;;10.55;4.18;;;;;;;;;;5013403;28;20069;-81
2023/06/02 02:26:26;;;;;;;9.90;4.45;;;;;;;;;;5013597;28;20030;-80
2023/06/02 02:28:54;;;;;;;9.65;4.63;;;;;;;;;;5014228;28;20014;-81
2023/06/02 02:31:36;;;;;;;9.23;3.90;;;;;;;;;;5014659;28;20034;-81
2023/06/02 02:34:12;;;;;;;9.95;4.28;;;;;;;;;;5014410;28;20033;-81
2023/06/02 02:36:41;;;;;;;12.00;4.72;;;15.10;92.60;;;;;;5015829;28;20017;-81
2023/06/02 02:39:22;;;;;;;5.85;3.67;;;;;;;;;;5014254;28;20030;-81
2023/06/02 02:41:51;;;;;;;8.65;4.35;;;;;;;;;;5015637;28;20023;-81
2023/06/02 02:44:17;;;;;;;6.97;4.28;;;;;;;;;;5014140;28;20038;-82
2023/06/02 02:46:47;;;;;;;8.38;4.78;;;;;;;;;;5014065;28;20038;-82
2023/06/02 02:49:16;;;;;;;8.15;4.13;;;;;;;;;;5013250;28;20050;-81
2023/06/02 02:51:43;;;;;;;9.73;4.03;;;;;;;;;;5014041;28;20014;-82
2023/06/02 02:54:09;;;;;;;7.00;3.70;;;;;;;;;;5014923;28;20026;-81
2023/06/02 02:56:40;;;;;;;8.55;4.00;;;;;;;;;;5014180;28;20038;-82
2023/06/02 02:59:07;;;;;;;5.68;3.58;;;;;;;;;;4998838;28;20046;-81
2023/06/02 03:01:34;;;;;;;14.38;4.47;;;;;;;;;;4996807;28;20022;-80
2023/06/02 03:04:08;;;;;;;7.95;4.07;;;;;;;;;;5015203;28;20038;-81
2023/06/02 03:06:40;;;;;;;11.70;4.22;;;;;;;;;;5014450;28;20006;-81
2023/06/02 03:09:27;;;;;;;7.78;3.45;;;14.60;94.30;;;;;;5013961;28;20058;-81
2023/06/02 03:11:53;;;;;;;10.57;4.45;;;;;;;;;;4992394;28;20066;-81
2023/06/02 03:14:20;;;;;;;8.73;4.20;;;;;;;;;;5014428;28;20010;-81
2023/06/02 03:16:46;;;;;;;6.95;4.05;;;;;;;;;;5015145;28;20019;-82
2023/06/02 03:19:13;;;;;;;8.85;4.20;;;;;;;;;;5016685;28;20030;-81
2023/06/02 03:21:44;;;;;;;8.88;4.20;;;;;;;;;;5015523;28;20031;-82
2023/06/02 03:24:25;;;;;;;10.25;3.88;;;;;;;;;;5015724;28;20050;-81
2023/06/02 03:26:55;;;;;;;8.25;4.40;;;14.10;97.00;;;;;;5014921;28;20062;-80
2023/06/02 03:29:47;;;;;;;7.28;4.13;;;14.10;97.90;;;;;;5016265;28;20022;-81
2023/06/02 03:32:17;;;;;;;5.18;3.47;;;;;;;;;;5016717;28;20010;-82
2023/06/02 03:35:09;;;;;;;9.57;4.43;;;14.00;98.50;;;;;;4998332;28;20098;-81
2023/06/02 03:37:39;;;;;;;9.00;4.05;;;;;;;;;;4998604;28;20085;-81
2023/06/02 03:40:28;;;;;;;6.00;3.65;;;13.90;98.40;;;;;;4998798;28;20010;-81
2023/06/02 03:43:13;;;;;;;7.10;3.70;;;13.90;98.80;;;;;;5000007;28;20042;-81
2023/06/02 03:45:50;;;;;;;8.23;3.92;;;;;;;;;;5016717;28;20014;-81
2023/06/02 03:48:20;;;;;;;7.53;3.97;;;;;;;;;;5019561;28;20018;-81
2023/06/02 03:51:25;;;;;;;6.63;3.70;;;;;;;;;;5020537;28;20015;-81
2023/06/02 03:53:51;;;;;;;11.70;4.97;;;;;;;;;;4988071;28;20102;-81
2023/06/02 03:56:19;;;;;;;5.93;3.60;;;;;;;;;;5020125;28;20031;-82
2023/06/02 03:59:02;;;;;;;12.18;4.43;;;;;;;;;;5020731;28;20041;-82
2023/06/02 04:01:28;;;;;;;10.48;3.60;;;;;;;;;;4985742;28;20082;-82
2023/06/02 04:04:02;;;;;;;7.72;3.70;;;13.80;99.90;;;;;;5001674;28;20073;-82
2023/06/02 04:06:28;;;;;;;9.43;4.35;;;;;;;;;;5002510;28;20023;-82
2023/06/02 04:09:14;;;;;;;7.65;3.58;;;;;;;;;;5018046;28;20022;-82
2023/06/02 04:11:50;;;;;;;5.55;3.28;;;;;;;;;;5020486;28;20018;-82
2023/06/02 04:14:16;;;;;;;7.65;4.40;;;;;;;;;;5000544;28;20015;-82
2023/06/02 04:16:42;;;;;;;7.93;3.75;;;;;;;;;;4996801;28;20017;-82
2023/06/02 04:19:08;;;;;;;6.43;3.40;;;;;;;;;;4996154;28;20007;-82
2023/06/02 04:21:40;;;;;;;11.23;4.95;;;;;;;;;;5003000;28;20013;-80
2023/06/02 04:24:09;;;;;;;5.90;3.20;;;;;;;;;;5003369;28;20082;-82
2023/06/02 04:26:56;;;;;;;7.40;3.67;;;;;;;;;;5003683;28;20045;-81
2023/06/02 04:29:22;;;;;;;8.15;4.15;;;;;;;;;;5002726;28;20021;-82
2023/06/02 04:31:48;;;;;;;6.97;3.67;;;;;;;;;;5002800;28;20098;-82
2023/06/02 04:34:16;;;;;;;5.72;3.67;;;;;;;;;;5002960;28;20033;-82
2023/06/02 04:36:42;;;;;;;8.30;4.18;;;;;;;;;;4996790;28;20030;-81
2023/06/02 04:39:16;;;;;;;8.07;3.70;;;;;;;;;;5020351;28;20026;-81
2023/06/02 04:41:49;;;;;;;7.50;3.90;;;;;;;;;;4986560;28;20025;-82
2023/06/02 04:44:22;;;;;;;8.25;3.72;;;;;;;;;;5000152;28;20022;-82
2023/06/02 04:47:36;;;;;;;12.18;4.80;;;;;;;;;;5018893;28;20007;-82
2023/06/02 04:50:02;;;;;;;10.05;3.95;;;;;;;;;;5018995;28;20034;-82
2023/06/02 04:52:32;;;;;;;6.30;3.83;;;;;;;;;;5003118;28;20019;-81
2023/06/02 04:55:01;;;;;;;7.95;3.50;;;;;;;;;;5002885;28;20015;-81
2023/06/02 04:57:47;;;;;;;11.05;4.18;;;;;;;;;;5003214;28;20034;-82
2023/06/02 05:00:13;;;;;;;6.00;4.00;;;;;;;;;;4998487;28;20082;-81
2023/06/02 05:02:46;;;;;;;8.02;4.30;;;;;;;;;;5002710;28;20010;-82
2023/06/02 05:05:12;;;;;;;10.55;3.53;;;;;;;;;;5003484;28;20106;-82
2023/06/02 05:07:41;;;;;;;7.07;3.70;;;;;;;;;;4999252;28;20023;-81
2023/06/02 05:10:27;;;;;;;9.27;4.40;;;;;;;;;;5018176;28;20041;-82
2023/06/02 05:12:54;;;;;;;5.80;4.20;;;;;;;;;;5001989;28;20011;-82
2023/06/02 05:15:31;;;;;;;9.15;4.00;;;;;;;;;;5018937;28;20037;-81
2023/06/02 05:18:01;;;;;;;7.70;4.22;;;;;;;;;;5001586;28;20062;-80
2023/06/02 05:20:27;;;;;;;11.50;4.88;;;;;;;;;;5017979;28;20157;-81
2023/06/02 05:22:53;;;;;;;4.50;3.60;;;;;;;;;;4993689;28;20034;-81
2023/06/02 05:25:22;;;;;;;6.32;4.35;;;14.60;98.20;;;;;;5001984;28;20042;-81
2023/06/02 05:28:01;;;;;;;12.40;4.28;;;;;;;;;;5019437;28;20018;-81
2023/06/02 05:30:47;;;;;;;6.95;4.22;;;;;;;;;;5016954;28;20031;-81
2023/06/02 05:33:30;;;;;;;9.65;4.63;;;14.70;99.30;;;;;;5001333;28;20025;-81
2023/06/02 05:35:56;;;;;;;7.38;4.28;;;;;;;;;;4999544;28;20057;-81
2023/06/02 05:38:22;;;;;;;10.32;4.68;;;;;;;;;;5000967;28;20018;-80
2023/06/02 05:40:48;;;;;;;14.15;4.60;;;;;;;;;;5001197;28;20007;-81
2023/06/02 05:43:16;;;;;;;7.65;3.95;;;;;;;;;;5008867;28;20042;-81
2023/06/02 05:45:47;;;;;;;15.50;4.90;;;;;;;;;;4997434;28;20022;-82
2023/06/02 05:48:13;;;;;;;15.15;4.47;;;;;;;;;;5001869;28;20115;-82
2023/06/02 05:50:41;;;;;;;12.40;5.30;;;;;;;;;;5017766;28;20010;-83
2023/06/02 05:53:10;;;;;;;6.63;4.63;;;;;;;;;;4998542;28;20039;-82
2023/06/02 05:55:38;;;;;;;9.32;4.85;;;;;;;;;;4999237;28;20041;-82
2023/06/02 05:58:06;;;;;;;8.50;4.70;;;;;;;;;;5007984;28;20038;-81
2023/06/02 06:00:33;;;;;;;9.23;4.40;;;;;;;;;;4990609;28;20037;-81
2023/06/02 06:03:00;;;;;;;10.70;4.55;;;;;;;;;;4994000;28;20026;-80
2023/06/02 06:05:26;;;;;;;13.63;5.25;;;;;;;;;;4998306;28;20097;-81
2023/06/02 06:07:52;;;;;;;10.73;5.45;;;;;;;;;;4985578;28;20030;-80
2023/06/02 06:10:17;;;;;;;9.02;4.97;;;15.50;96.70;;;;;;4989150;28;20035;-81
2023/06/02 06:12:43;;;;;;;10.82;5.38;;;15.50;96.30;;;;;;4991535;28;20011;-80
2023/06/02 06:15:10;;;;;;;8.98;4.88;;;15.60;96.30;;;;;;4973744;28;20061;-81
2023/06/02 06:17:48;;;;;;;9.20;4.25;;;15.40;96.10;;;;;;4992317;28;20033;-81
2023/06/02 06:20:15;;;;;;;6.95;4.28;;;15.40;96.40;;;;;;4972272;28;20011;-80
2023/06/02 06:27:55;;;;;;;7.93;4.30;;;;;;;;;;4972370;23;20088;-80
2023/06/02 06:30:21;;;;;;;12.98;5.22;;;;;;;;;;5269232;23;20012;-82
2023/06/02 06:32:47;;;;;;;11.77;4.78;;;;;;;;;;4991491;28;20035;-81
2023/06/02 06:35:13;;;;;;;15.40;5.38;;;;;;;;;;4993663;28;20118;-80
2023/06/02 06:37:39;;;;;;;14.77;6.57;;;15.70;95.50;;;;;;4994358;28;20025;-80
2023/06/02 06:40:05;;;;;;;9.55;5.60;;;16.70;94.10;;;;;;4994042;28;20068;-81
2023/06/02 06:42:36;;;;;;;13.90;4.72;;;18.10;90.90;;;;;;4996354;28;20027;-80
2023/06/02 06:45:01;;;;;;;7.78;4.80;;;18.20;90.90;;;;;;4975997;28;20038;-79
2023/06/02 06:47:27;;;;;;;10.27;4.93;;;;;;;;;;4992494;28;20030;-81
2023/06/02 06:49:54;;;;;;;12.38;5.22;;;;;;;;;;4996865;28;20082;-80
2023/06/02 06:52:20;;;;;;;10.93;5.57;;;;;;;;;;4997984;28;20007;-82
2023/06/02 06:54:59;;;;;;;15.20;5.47;;;;;;;;;;4980784;28;20035;-82
2023/06/02 06:57:25;;;;;;;11.05;5.18;;;19.40;82.00;;;;;;4982203;28;20031;-80
2023/06/02 06:59:51;;;;;;;15.38;5.53;;;;;;;;;;4964016;28;20119;-80
2023/06/02 07:02:17;;;;;;;9.55;5.75;;;20.10;77.20;;;;;;4957238;28;20070;-80
2023/06/02 07:04:42;;;;;;;8.73;5.07;;;19.90;75.70;;;;;;4978170;28;20042;-80
2023/06/02 07:07:08;;;;;;;8.95;5.10;;;20.00;77.40;;;;;;4981587;28;20023;-79
2023/06/02 07:09:34;;;;;;;12.45;6.13;;;19.90;77.50;;;;;;4980844;28;20118;-79
2023/06/02 07:11:59;;;;;;;11.13;5.47;;;20.50;76.10;;;;;;4982864;28;20029;-80
2023/06/02 07:14:27;;;;;;;7.40;4.50;;;19.90;76.30;;;;;;4964951;28;20054;-79
2023/06/02 07:16:54;;;;;;;8.38;5.45;;;19.90;78.20;;;;;;4964179;28;20018;-79
2023/06/02 07:19:21;;;;;;;12.88;6.35;;;20.20;76.50;;;;;;4981461;28;20033;-79
2023/06/02 07:21:46;;;;;;;12.15;6.13;;;20.30;75.20;;;;;;4962732;28;20019;-79
2023/06/02 07:24:12;;;;;;;10.63;5.78;;;19.90;75.80;;;;;;4983535;28;20040;-78
2023/06/02 07:26:38;;;;;;;10.90;5.30;;;19.60;77.10;;;;;;4973799;28;20023;-79
2023/06/02 07:29:03;;;;;;;14.18;5.43;;;19.60;77.60;;;;;;4947121;29;20333;-78
2023/06/02 07:31:29;;;;;;;11.07;6.00;;;20.10;78.50;;;;;;4965638;29;20126;-78
2023/06/02 07:33:56;;;;;;;12.02;6.05;;;19.40;78.10;;;;;;4964695;29;20038;-77
2023/06/02 07:36:22;;;;;;;12.65;5.57;;;19.50;78.20;;;;;;4947438;29;20075;-78
2023/06/02 07:38:48;;;;;;;6.85;4.80;;;19.90;77.50;;;;;;4957596;28;20377;-77
2023/06/02 07:41:15;;;;;;;13.02;5.90;;;19.70;76.00;;;;;;4978288;28;20023;-78
2023/06/02 07:43:40;;;;;;;11.88;5.50;;;19.70;76.60;;;;;;4989100;28;20054;-81
2023/06/02 07:46:06;;;;;;;9.43;5.60;;;19.70;77.40;;;;;;4984568;28;20015;-80
2023/06/02 07:48:32;;;;;;;9.80;4.70;;;19.70;76.20;;;;;;4979098;28;20211;-78
2023/06/02 07:50:57;;;;;;;12.85;5.78;;;20.10;76.10;;;;;;4976080;28;20038;-78
2023/06/02 07:53:23;;;;;;;13.80;5.93;;;20.30;74.80;;;;;;4974339;28;20039;-78
2023/06/02 07:55:49;;;;;;;12.65;6.00;;;20.40;75.20;;;;;;4978369;28;20027;-78
2023/06/02 07:58:14;;;;;;;13.25;5.68;;;20.70;73.90;;;;;;4974086;28;20094;-80
2023/06/02 08:00:40;;;;;;;13.65;5.47;;;21.10;73.80;;;;;;4972412;28;20302;-78
2023/06/02 08:03:07;;;;;;;9.13;6.13;;;21.70;73.60;;;;;;4973254;28;20081;-77
2023/06/02 08:05:32;;;;;;;9.70;5.25;;;21.70;71.30;;;;;;4974718;28;20023;-78
2023/06/02 08:07:58;;;;;;;9.32;5.75;;;21.60;71.80;;;;;;4970913;28;20023;-77
2023/06/02 08:10:24;;;;;;;11.25;5.07;;;21.30;72.40;;;;;;4954586;29;20432;-81
2023/06/02 08:12:50;;;;;;;7.25;4.60;;;21.10;72.80;;;;;;4938144;29;20027;-78
2023/06/02 08:15:15;;;;;;;11.38;4.38;;;21.40;73.70;;;;;;4955337;29;20122;-78
2023/06/02 08:17:41;;;;;;;13.05;5.97;;;21.60;73.10;;;;;;4973928;28;20565;-77
2023/06/02 08:20:10;;;;;;;13.20;5.95;;;21.90;70.20;;;;;;4974707;28;20042;-79
2023/06/02 08:22:36;;;;;;;9.07;5.55;;;20.70;72.10;;;;;;4960240;28;20026;-78
2023/06/02 08:25:03;;;;;;;8.23;4.57;;;20.00;73.90;;;;;;4973251;28;20042;-76
2023/06/02 08:27:28;;;;;;;10.00;5.75;;;20.40;74.00;;;;;;4971988;28;20424;-78
2023/06/02 08:29:56;;;;;;;9.45;5.40;;;21.20;72.50;;;;;;4969838;28;20023;-78
2023/06/02 08:32:22;;;;;;;11.90;5.80;;;21.30;73.00;;;;;;4969288;28;20046;-79
2023/06/02 08:34:55;;;;;;;9.15;5.50;;;21.80;71.60;;;;;;4969497;28;20925;-77
2023/06/02 08:37:21;;;;;;;10.10;4.80;;;21.70;70.90;;;;;;4971293;28;20085;-78
2023/06/02 08:39:48;;;;;;;12.50;6.15;;;21.30;72.00;;;;;;4971118;28;20030;-79
2023/06/02 08:42:15;;;;;;;7.38;4.57;;;21.80;70.50;;;;;;4969623;28;20030;-79
2023/06/02 08:44:42;;;;;;;11.20;5.47;;;21.90;69.80;;;;;;4972182;28;20363;-78
2023/06/02 08:47:11;;;;;;;10.90;5.45;;;21.50;70.50;;;;;;4970940;28;20023;-78
2023/06/02 08:49:41;;;;;;;9.03;5.00;;;21.60;70.00;;;;;;4973410;28;20178;-79
2023/06/02 08:52:11;;;;;;;8.25;4.45;;;21.60;70.10;;;;;;4970779;28;20266;-79
2023/06/02 08:54:39;;;;;;;9.85;5.15;;;21.50;70.30;;;;;;4970217;28;20089;-78
2023/06/02 08:57:05;;;;;;;8.52;4.93;;;21.60;71.30;;;;;;4971369;28;20118;-78
2023/06/02 08:59:31;;;;;;;12.38;4.93;;;21.40;70.20;;;;;;4972401;28;20030;-77
2023/06/02 09:02:00;;;;;;;13.50;4.72;;;21.90;70.70;;;;;;4974546;28;20577;-79
2023/06/02 09:04:25;;;;;;;11.80;5.18;;;21.90;70.20;;;;;;4975906;28;20106;-82
2023/06/02 09:07:13;;;;;;;7.78;5.10;;;21.40;69.90;;;;;;4987831;28;20027;-79
2023/06/02 09:09:40;;;;;;;9.13;5.70;;;21.40;70.70;;;;;;4966437;28;20113;-81
2023/06/02 09:12:08;;;;;;;8.93;4.60;;;21.20;70.90;;;;;;4983211;28;20491;-78
2023/06/02 09:14:34;;;;;;;7.28;5.10;;;21.70;70.10;;;;;;4971372;28;20027;-77
2023/06/02 09:17:00;;;;;;;10.27;5.50;;;21.70;70.20;;;;;;4971858;28;20080;-79
2023/06/02 09:19:26;;;;;;;9.02;5.25;;;21.70;70.60;;;;;;4955004;28;20031;-78
2023/06/02 09:22:03;;;;;;;10.13;5.15;;;22.00;70.30;;;;;;4972097;28;20467;-78
2023/06/02 09:24:32;;;;;;;12.93;4.47;;;21.70;69.20;;;;;;4972596;28;20131;-79
2023/06/02 09:26:58;;;;;;;9.27;4.70;;;21.20;70.20;;;;;;4971055;28;20522;-78
2023/06/02 09:29:24;;;;;;;8.68;4.35;;;21.30;70.70;;;;;;4976233;28;20043;-78
2023/06/02 09:31:52;;;;;;;10.45;4.45;;;21.40;70.80;;;;;;4971108;28;20635;-78
2023/06/02 09:34:19;;;;;;;9.13;3.83;;;21.40;70.70;;;;;;4955445;28;20030;-78
2023/06/02 09:36:49;;;;;;;7.40;4.78;;;21.50;70.60;;;;;;4956321;28;20031;-79
2023/06/02 09:39:34;;;;;;;9.15;5.30;;;21.50;71.00;;;;;;4954680;28;20032;-78
2023/06/02 09:42:00;;;;;;;10.68;5.50;;;22.10;68.50;;;;;;4975436;28;20054;-77
2023/06/02 09:44:26;;;;;;;8.55;4.88;;;22.10;69.50;;;;;;4971613;28;20035;-80
2023/06/02 09:46:53;;;;;;;7.13;4.60;;;22.40;68.80;;;;;;4970530;28;20349;-78
2023/06/02 09:49:19;;;;;;;14.18;4.47;;;22.40;68.80;;;;;;4972932;28;20077;-78
2023/06/02 09:51:44;;;;;;;8.38;4.38;;;22.40;69.60;;;;;;4971546;28;20114;-81
2023/06/02 09:54:11;;;;;;;7.05;4.20;;;22.10;68.90;;;;;;4974312;28;20061;-78
2023/06/02 09:56:38;;;;;;;8.63;4.57;;;22.40;69.20;;;;;;4972069;28;20034;-80
2023/06/02 09:59:05;;;;;;;7.18;4.13;;;22.40;68.50;;;;;;4974448;28;20026;-78
2023/06/02 10:01:32;;;;;;;9.48;5.05;;;22.60;68.60;;;;;;4973790;28;20037;-79
2023/06/02 10:03:58;;;;;;;10.20;4.78;;;22.30;69.60;;;;;;4972568;28;20070;-78
2023/06/02 10:06:51;;;;;;;15.75;5.20;;;22.30;69.30;;;;;;4974596;28;20027;-78
2023/06/02 10:09:49;;;;;;;6.80;4.43;;;22.10;69.20;;;;;;4967091;28;20129;-79
2023/06/02 10:12:54;;;;;;;9.73;4.73;;;22.50;68.10;;;;;;4978581;28;20019;-81
2023/06/02 10:15:26;;;;;;;6.72;4.55;;;22.90;67.70;;;;;;4984426;28;20309;-80
2023/06/02 10:18:10;;;;;;;10.43;4.63;;;22.80;68.50;;;;;;4982915;28;20027;-79
2023/06/02 10:20:59;;;;;;;5.97;4.28;;;23.10;68.30;;;;;;4982433;28;20039;-80
2023/06/02 10:23:47;;;;;;;8.43;4.32;;;23.50;65.00;;;;;;4952885;28;20510;-80
2023/06/02 10:26:40;;;;;;;6.95;4.47;;;23.20;64.90;;;;;;4964197;28;20045;-80
2023/06/02 10:29:08;;;;;;;14.13;4.55;;;23.20;64.90;;;;;;4982260;28;20388;-81
2023/06/02 10:31:34;;;;;;;7.82;4.55;;;;;;;;;;4965745;28;20049;-81
2023/06/02 10:34:03;;;;;;;6.93;4.85;;;23.50;64.40;;;;;;4982623;28;20019;-81
2023/06/02 10:37:00;;;;;;;5.30;3.27;;;23.80;65.50;;;;;;4960937;28;20554;-81
2023/06/02 10:39:41;;;;;;;6.95;3.83;;;23.90;65.20;;;;;;4979880;28;20289;-81
2023/06/02 10:42:15;;;;;;;6.35;3.42;;;23.70;62.10;;;;;;4976920;28;20027;-89
2023/06/02 10:44:41;;;;;;;6.15;3.85;;;;;;;;;;4976301;28;20078;-81
2023/06/02 10:47:21;;;;;;;5.57;3.83;;;24.50;62.00;;;;;;4972976;28;20034;-81
2023/06/02 10:50:01;;;;;;;6.72;3.50;;;24.60;62.30;;;;;;4976966;28;20539;-82
2023/06/02 10:52:32;;;;;;;7.03;3.78;;;23.90;61.80;;;;;;4979163;28;20026;-81
2023/06/02 10:55:09;;;;;;;7.03;3.58;;;24.30;61.70;;;;;;4981835;28;20113;-82
2023/06/02 10:58:01;;;;;;;8.32;3.85;;;24.50;61.40;;;;;;4976795;28;20035;-84
2023/06/02 11:00:32;;;;;;;7.07;3.60;;;24.60;61.30;;;;;;4976771;28;20158;-82
2023/06/02 11:03:23;;;;;;;6.95;4.05;;;25.40;60.00;;;;;;4980350;28;20027;-82
2023/06/02 11:05:50;;;;;;;10.88;3.45;;;25.50;60.00;;;;;;4975322;28;20027;-84
2023/06/02 11:08:16;;;;;;;3.92;3.50;;;25.80;60.00;;;;;;4979350;28;20019;-82
2023/06/02 11:10:57;;;;;;;8.70;3.75;;;25.00;60.80;;;;;;4982513;28;20037;-82
2023/06/02 11:13:25;;;;;;;4.93;3.00;;;25.20;60.10;;;;;;4982596;28;20109;-87
2023/06/02 11:15:53;;;;;;;5.55;3.50;;;25.20;60.60;;;;;;4981329;28;20085;-82
2023/06/02 11:18:28;;;;;;;5.57;3.85;;;25.20;60.20;;;;;;4978561;28;20031;-83
2023/06/02 11:21:03;;;;;;;14.82;4.00;;;25.10;62.00;;;;;;4979012;28;20026;-90
2023/06/02 11:23:29;;;;;;;12.85;4.20;;;25.40;61.20;;;;;;4974760;28;20122;-84
2023/06/02 11:26:01;;;;;;;5.85;3.58;;;25.90;60.20;;;;;;4957564;28;20035;-82
2023/06/02 11:28:28;;;;;;;10.35;3.63;;;26.00;60.50;;;;;;4974468;28;20041;-83
2023/06/02 11:31:13;;;;;;;7.05;3.55;;;25.70;61.10;;;;;;4977942;28;20133;-83
2023/06/02 11:33:41;;;;;;;6.88;3.67;;;25.70;59.90;;;;;;4975190;28;20042;-84
2023/06/02 11:36:09;;;;;;;9.75;3.92;;;25.70;60.70;;;;;;4973697;28;20027;-83
2023/06/02 11:38:36;;;;;;;6.90;3.27;;;25.90;60.60;;;;;;4973980;28;20050;-82
2023/06/02 11:41:13;;;;;;;7.50;3.47;;;25.70;59.40;;;;;;4975833;28;20074;-87
2023/06/02 11:46:58;;;;;;;3.28;2.97;;;26.20;57.60;;;;;;4979258;28;20097;-82
2023/06/02 11:49:36;;;;;;;4.72;3.03;;;26.40;60.30;;;;;;4958094;28;20027;-83
2023/06/02 11:52:02;;;;;;;7.25;3.20;;;26.70;58.20;;;;;;4973870;28;20113;-84
2023/06/02 11:54:27;;;;;;;4.95;3.70;;;26.40;57.00;;;;;;4974520;28;20077;-82
2023/06/02 11:56:53;;;;;;;8.55;3.75;;;;;;;;;;4957512;28;20476;-83
2023/06/02 11:59:19;;;;;;;6.07;3.50;;;26.90;56.30;;;;;;4973610;28;20027;-83
2023/06/02 12:01:45;;;;;;;6.13;3.38;;;26.80;56.60;;;;;;4957619;28;20446;-85
2023/06/02 12:04:12;;;;;;;7.75;3.08;;;27.30;57.20;;;;;;4957273;28;20038;-83
2023/06/02 12:06:45;;;;;;;7.65;3.30;;;26.90;55.60;;;;;;4957266;28;20034;-83
2023/06/02 12:09:11;;;;;;;3.78;2.70;;;27.00;56.10;;;;;;4972244;28;20030;-83
2023/06/02 12:11:37;;;;;;;7.18;2.85;;;27.00;56.90;;;;;;4973699;28;20124;-82
2023/06/02 12:14:05;;;;;;;4.68;2.83;;;26.60;57.20;;;;;;4973325;28;20131;-81
2023/06/02 12:16:31;;;;;;;6.93;3.22;;;27.30;56.20;;;;;;4972941;28;20117;-82
2023/06/02 12:19:19;;;;;;;5.35;3.15;;;27.20;55.20;;;;;;4957244;28;20027;-82
2023/06/02 12:21:49;;;;;;;3.42;3.13;;;27.30;55.70;;;;;;4973018;28;20026;-82
2023/06/02 12:24:36;;;;;;;5.57;2.47;;;27.10;55.80;;;;;;4972723;28;20078;-83
2023/06/02 12:27:02;;;;;;;12.40;3.03;;;27.20;55.90;;;;;;4972780;28;20365;-85
2023/06/02 12:29:28;;;;;;;8.05;2.72;;;27.20;55.70;;;;;;4972427;28;20024;-86
2023/06/02 12:31:57;;;;;;;7.53;2.80;;;27.00;55.00;;;;;;4956248;28;20056;-83
2023/06/02 12:34:23;;;;;;;5.38;2.92;;;27.10;55.50;;;;;;4972570;28;20054;-83
2023/06/02 12:36:49;;;;;;;4.22;3.20;;;27.00;56.20;;;;;;4956844;28;20065;-85
2023/06/02 12:39:14;;;;;;;9.13;3.13;;;27.20;56.50;;;;;;4956472;28;20090;-86
2023/06/02 12:41:40;;;;;;;5.75;3.47;;;27.30;57.50;;;;;;4956723;28;20506;-82
2023/06/02 12:44:05;;;;;;;5.63;2.40;;;27.70;56.10;;;;;;4956947;28;20035;-85
2023/06/02 12:46:31;;;;;;;4.25;3.03;;;;;;;;;;4956481;28;20030;-81
2023/06/02 12:48:58;;;;;;;6.15;3.03;;;27.90;55.90;;;;;;4972222;28;20023;-83
2023/06/02 12:51:24;;;;;;;5.65;2.70;;;28.00;55.50;;;;;;4956157;28;20388;-83
2023/06/02 12:53:50;;;;;;;4.85;2.47;;;28.00;55.50;;;;;;4972183;28;20023;-83
2023/06/02 12:56:15;;;;;;;4.75;3.08;;;28.00;55.40;;;;;;4956384;28;20407;-87
2023/06/02 12:58:41;;;;;;;6.65;3.13;;;27.80;54.30;;;;;;4956500;28;20123;-83
2023/06/02 13:01:07;;;;;;;3.60;2.95;;;27.30;55.50;;;;;;4956258;28;20215;-83
2023/06/02 13:03:32;;;;;;;10.63;2.95;;;27.90;54.20;;;;;;4955924;28;20077;-83
2023/06/02 13:06:03;;;;;;;4.10;2.60;;;27.50;55.70;;;;;;4955819;28;20539;-82
2023/06/02 13:08:30;;;;;;;4.43;2.95;;;;;;;;;;4973176;28;20420;-82
2023/06/02 13:10:56;;;;;;;3.83;2.60;;;28.20;54.90;;;;;;4973099;28;20069;-81
2023/06/02 13:13:22;;;;;;;5.47;3.58;;;28.70;55.50;;;;;;4956123;28;20023;-84
2023/06/02 13:15:48;;;;;;;5.30;2.33;;;28.70;53.20;;;;;;4973771;28;20030;-81
2023/06/02 13:18:14;;;;;;;7.10;3.25;;;;;;;;;;4973644;28;20027;-83
2023/06/02 13:20:40;;;;;;;3.80;3.30;;;27.80;53.90;;;;;;4971305;28;20168;-82
2023/06/02 13:23:06;;;;;;;6.93;2.88;;;27.80;55.60;;;;;;4972993;28;20733;-83
2023/06/02 13:25:33;;;;;;;7.30;3.03;;;;;;;;;;4955286;28;20034;-82
2023/06/02 13:27:59;;;;;;;11.32;3.10;;;;;;;;;;4971804;28;20110;-85
2023/06/02 13:30:25;;;;;;;5.00;2.92;;;28.50;51.80;;;;;;4971777;28;20476;-83
2023/06/02 13:32:51;;;;;;;9.40;2.85;;;28.40;52.50;;;;;;4971530;28;20447;-83
2023/06/02 13:35:18;;;;;;;5.75;2.83;;;28.30;53.30;;;;;;4971772;28;20058;-84
2023/06/02 13:37:44;;;;;;;5.65;3.40;;;;;;;;;;4971714;28;20500;-82
2023/06/02 13:40:10;;;;;;;5.97;2.55;;;28.50;51.80;;;;;;4970985;28;20034;-82
2023/06/02 13:42:36;;;;;;;5.25;2.47;;;;;;;;;;4972464;28;20027;-84
2023/06/02 13:45:02;;;;;;;7.35;3.10;;;28.00;54.40;;;;;;4971520;28;20074;-83
2023/06/02 13:47:28;;;;;;;4.03;2.75;;;28.60;55.00;;;;;;4955498;28;20019;-82
2023/06/02 13:49:54;;;;;;;5.50;2.88;;;;;;;;;;4971260;28;20037;-82
2023/06/02 13:52:20;;;;;;;3.97;2.42;;;;;;;;;;4971191;28;20023;-81
2023/06/02 13:54:46;;;;;;;4.07;2.47;;;28.30;51.80;;;;;;4972144;28;20031;-83
2023/06/02 13:57:12;;;;;;;4.95;2.63;;;;;;;;;;4971372;28;20019;-84